sensor_id;sensor_type;location;lat;lon;timestamp;P1;durP1;ratioP1;P2;durP2;ratioP2
30080;SDS011;16902;50.816;12.828;2023-02-15T00:01:58;37.63;;;22.50;;
30080;SDS011;16902;50.816;12.828;2023-02-15T00:07:00;35.50;;;22.87;;
30080;SDS011;16902;50.816;12.828;2023-02-15T00:12:01;40.23;;;22.80;;
30080;SDS011;16902;50.816;12.828;2023-02-15T00:17:03;39.67;;;22.53;;
30080;SDS011;16902;50.816;12.828;2023-02-15T00:22:05;38.53;;;23.00;;
30080;SDS011;16902;50.816;12.828;2023-02-15T00:27:07;37.33;;;23.37;;
30080;SDS011;16902;50.816;12.828;2023-02-15T00:32:10;41.63;;;22.40;;
30080;SDS011;16902;50.816;12.828;2023-02-15T00:37:12;36.03;;;21.83;;
30080;SDS011;16902;50.816;12.828;2023-02-15T00:42:14;33.50;;;21.03;;
30080;SDS011;16902;50.816;12.828;2023-02-15T00:47:16;35.13;;;21.03;;
30080;SDS011;16902;50.816;12.828;2023-02-15T00:52:18;35.57;;;20.43;;
30080;SDS011;16902;50.816;12.828;2023-02-15T00:57:19;32.90;;;20.27;;
30080;SDS011;16902;50.816;12.828;2023-02-15T01:02:21;33.83;;;20.50;;
30080;SDS011;16902;50.816;12.828;2023-02-15T01:07:23;26.47;;;19.27;;
30080;SDS011;16902;50.816;12.828;2023-02-15T01:12:28;34.50;;;19.93;;
30080;SDS011;16902;50.816;12.828;2023-02-15T01:17:31;32.93;;;19.27;;
30080;SDS011;16902;50.816;12.828;2023-02-15T01:22:33;29.87;;;18.87;;
30080;SDS011;16902;50.816;12.828;2023-02-15T01:27:35;29.53;;;18.83;;
30080;SDS011;16902;50.816;12.828;2023-02-15T01:32:37;26.90;;;17.50;;
30080;SDS011;16902;50.816;12.828;2023-02-15T01:37:39;28.40;;;16.57;;
30080;SDS011;16902;50.816;12.828;2023-02-15T01:42:40;30.73;;;18.00;;
30080;SDS011;16902;50.816;12.828;2023-02-15T01:48:32;28.37;;;17.60;;
30080;SDS011;16902;50.816;12.828;2023-02-15T01:53:35;28.33;;;17.80;;
30080;SDS011;16902;50.816;12.828;2023-02-15T01:58:43;26.40;;;16.83;;
30080;SDS011;16902;50.816;12.828;2023-02-15T02:09:09;29.33;;;17.03;;
30080;SDS011;16902;50.816;12.828;2023-02-15T02:14:11;25.77;;;16.07;;
30080;SDS011;16902;50.816;12.828;2023-02-15T02:30:00;28.60;;;17.07;;
30080;SDS011;16902;50.816;12.828;2023-02-15T02:45:43;26.03;;;16.53;;
30080;SDS011;16902;50.816;12.828;2023-02-15T02:50:50;22.90;;;15.47;;
30080;SDS011;16902;50.816;12.828;2023-02-15T02:55:53;23.83;;;14.30;;
30080;SDS011;16902;50.816;12.828;2023-02-15T03:01:03;24.00;;;13.83;;
30080;SDS011;16902;50.816;12.828;2023-02-15T03:06:16;23.63;;;13.67;;
30080;SDS011;16902;50.816;12.828;2023-02-15T03:11:25;23.67;;;14.40;;
30080;SDS011;16902;50.816;12.828;2023-02-15T03:16:27;22.37;;;15.27;;
30080;SDS011;16902;50.816;12.828;2023-02-15T03:21:31;22.60;;;13.90;;
30080;SDS011;16902;50.816;12.828;2023-02-15T03:26:43;23.20;;;14.13;;
30080;SDS011;16902;50.816;12.828;2023-02-15T03:31:49;21.33;;;13.47;;
30080;SDS011;16902;50.816;12.828;2023-02-15T03:42:16;22.87;;;13.83;;
30080;SDS011;16902;50.816;12.828;2023-02-15T03:47:24;19.93;;;13.13;;
30080;SDS011;16902;50.816;12.828;2023-02-15T03:52:29;22.33;;;13.87;;
30080;SDS011;16902;50.816;12.828;2023-02-15T03:57:35;22.07;;;12.93;;
30080;SDS011;16902;50.816;12.828;2023-02-15T04:03:00;20.40;;;12.80;;
30080;SDS011;16902;50.816;12.828;2023-02-15T04:08:17;17.83;;;12.63;;
30080;SDS011;16902;50.816;12.828;2023-02-15T04:13:19;19.33;;;12.37;;
30080;SDS011;16902;50.816;12.828;2023-02-15T04:18:22;17.60;;;11.60;;
30080;SDS011;16902;50.816;12.828;2023-02-15T04:23:42;18.83;;;12.10;;
30080;SDS011;16902;50.816;12.828;2023-02-15T04:29:02;19.30;;;12.57;;
30080;SDS011;16902;50.816;12.828;2023-02-15T04:34:04;21.90;;;12.80;;
30080;SDS011;16902;50.816;12.828;2023-02-15T04:39:06;17.40;;;12.10;;
30080;SDS011;16902;50.816;12.828;2023-02-15T04:44:09;18.47;;;12.37;;
30080;SDS011;16902;50.816;12.828;2023-02-15T04:49:11;18.37;;;12.10;;
30080;SDS011;16902;50.816;12.828;2023-02-15T04:54:13;13.20;;;10.60;;
30080;SDS011;16902;50.816;12.828;2023-02-15T04:59:15;13.33;;;10.10;;
30080;SDS011;16902;50.816;12.828;2023-02-15T05:04:17;14.47;;;9.87;;
30080;SDS011;16902;50.816;12.828;2023-02-15T05:09:19;13.90;;;10.57;;
30080;SDS011;16902;50.816;12.828;2023-02-15T05:14:21;16.10;;;9.63;;
30080;SDS011;16902;50.816;12.828;2023-02-15T05:19:23;15.73;;;10.63;;
30080;SDS011;16902;50.816;12.828;2023-02-15T05:24:25;17.93;;;12.17;;
30080;SDS011;16902;50.816;12.828;2023-02-15T05:29:46;20.20;;;13.20;;
30080;SDS011;16902;50.816;12.828;2023-02-15T05:34:48;22.27;;;13.27;;
30080;SDS011;16902;50.816;12.828;2023-02-15T05:39:50;21.17;;;12.57;;
30080;SDS011;16902;50.816;12.828;2023-02-15T05:44:52;17.27;;;10.43;;
30080;SDS011;16902;50.816;12.828;2023-02-15T05:49:54;17.57;;;11.20;;
30080;SDS011;16902;50.816;12.828;2023-02-15T05:54:56;18.87;;;11.97;;
30080;SDS011;16902;50.816;12.828;2023-02-15T05:59:58;18.33;;;11.40;;
30080;SDS011;16902;50.816;12.828;2023-02-15T06:04:59;19.63;;;12.57;;
30080;SDS011;16902;50.816;12.828;2023-02-15T06:10:02;19.20;;;11.77;;
30080;SDS011;16902;50.816;12.828;2023-02-15T06:15:05;15.20;;;11.03;;
30080;SDS011;16902;50.816;12.828;2023-02-15T06:20:07;16.90;;;10.83;;
30080;SDS011;16902;50.816;12.828;2023-02-15T06:25:10;21.07;;;10.93;;
30080;SDS011;16902;50.816;12.828;2023-02-15T06:30:12;16.40;;;10.23;;
30080;SDS011;16902;50.816;12.828;2023-02-15T06:35:14;13.50;;;10.17;;
30080;SDS011;16902;50.816;12.828;2023-02-15T06:40:17;16.93;;;11.17;;
30080;SDS011;16902;50.816;12.828;2023-02-15T06:45:19;15.03;;;10.23;;
30080;SDS011;16902;50.816;12.828;2023-02-15T06:50:21;14.10;;;9.73;;
30080;SDS011;16902;50.816;12.828;2023-02-15T06:55:22;14.70;;;9.87;;
30080;SDS011;16902;50.816;12.828;2023-02-15T07:00:24;16.60;;;11.60;;
30080;SDS011;16902;50.816;12.828;2023-02-15T07:05:26;17.40;;;12.27;;
30080;SDS011;16902;50.816;12.828;2023-02-15T07:10:32;17.87;;;12.40;;
30080;SDS011;16902;50.816;12.828;2023-02-15T07:15:34;17.87;;;12.33;;
30080;SDS011;16902;50.816;12.828;2023-02-15T07:20:36;19.67;;;11.97;;
30080;SDS011;16902;50.816;12.828;2023-02-15T07:25:38;16.53;;;11.47;;
30080;SDS011;16902;50.816;12.828;2023-02-15T07:30:40;19.03;;;11.83;;
30080;SDS011;16902;50.816;12.828;2023-02-15T07:35:46;15.70;;;12.00;;
30080;SDS011;16902;50.816;12.828;2023-02-15T07:40:49;20.40;;;13.63;;
30080;SDS011;16902;50.816;12.828;2023-02-15T07:45:50;22.47;;;15.20;;
30080;SDS011;16902;50.816;12.828;2023-02-15T07:50:52;27.93;;;15.93;;
30080;SDS011;16902;50.816;12.828;2023-02-15T07:55:54;28.33;;;16.70;;
30080;SDS011;16902;50.816;12.828;2023-02-15T08:01:00;26.23;;;16.77;;
30080;SDS011;16902;50.816;12.828;2023-02-15T08:06:05;22.67;;;15.37;;
30080;SDS011;16902;50.816;12.828;2023-02-15T08:16:41;21.73;;;15.77;;
30080;SDS011;16902;50.816;12.828;2023-02-15T08:21:44;23.93;;;15.80;;
30080;SDS011;16902;50.816;12.828;2023-02-15T08:26:50;20.60;;;14.57;;
30080;SDS011;16902;50.816;12.828;2023-02-15T08:31:54;25.07;;;16.60;;
30080;SDS011;16902;50.816;12.828;2023-02-15T08:37:00;23.73;;;15.80;;
30080;SDS011;16902;50.816;12.828;2023-02-15T08:42:02;26.80;;;17.10;;
30080;SDS011;16902;50.816;12.828;2023-02-15T08:47:04;25.77;;;17.00;;
30080;SDS011;16902;50.816;12.828;2023-02-15T08:52:06;17.85;;;12.60;;
30080;SDS011;16902;50.816;12.828;2023-02-15T08:57:08;16.25;;;11.80;;
30080;SDS011;16902;50.816;12.828;2023-02-15T09:02:11;17.40;;;12.10;;
30080;SDS011;16902;50.816;12.828;2023-02-15T09:07:13;12.32;;;9.77;;
30080;SDS011;16902;50.816;12.828;2023-02-15T09:12:15;11.05;;;8.93;;
30080;SDS011;16902;50.816;12.828;2023-02-15T09:17:17;10.20;;;7.70;;
30080;SDS011;16902;50.816;12.828;2023-02-15T09:22:19;8.45;;;7.07;;
30080;SDS011;16902;50.816;12.828;2023-02-15T09:27:21;7.50;;;5.97;;
30080;SDS011;16902;50.816;12.828;2023-02-15T09:32:23;6.03;;;5.53;;
30080;SDS011;16902;50.816;12.828;2023-02-15T09:37:25;6.20;;;5.53;;
30080;SDS011;16902;50.816;12.828;2023-02-15T10:30:11;12.57;;;11.70;;
30080;SDS011;16902;50.816;12.828;2023-02-15T10:40:51;13.15;;;12.45;;
30080;SDS011;16902;50.816;12.828;2023-02-15T10:57:02;16.10;;;14.93;;
30080;SDS011;16902;50.816;12.828;2023-02-15T11:08:11;15.57;;;14.38;;
30080;SDS011;16902;50.816;12.828;2023-02-15T11:13:14;16.08;;;14.68;;
30080;SDS011;16902;50.816;12.828;2023-02-15T11:18:23;15.07;;;13.90;;
30080;SDS011;16902;50.816;12.828;2023-02-15T11:23:29;14.80;;;13.90;;
30080;SDS011;16902;50.816;12.828;2023-02-15T11:28:42;15.27;;;14.38;;
30080;SDS011;16902;50.816;12.828;2023-02-15T11:34:36;14.68;;;13.68;;
30080;SDS011;16902;50.816;12.828;2023-02-15T11:39:36;15.68;;;14.60;;
30080;SDS011;16902;50.816;12.828;2023-02-15T11:44:49;13.90;;;13.20;;
30080;SDS011;16902;50.816;12.828;2023-02-15T11:49:59;14.30;;;13.45;;
30080;SDS011;16902;50.816;12.828;2023-02-15T11:55:01;13.90;;;13.15;;
30080;SDS011;16902;50.816;12.828;2023-02-15T12:05:40;13.90;;;13.10;;
30080;SDS011;16902;50.816;12.828;2023-02-15T12:10:51;14.32;;;13.55;;
30080;SDS011;16902;50.816;12.828;2023-02-15T12:16:04;15.07;;;14.02;;
30080;SDS011;16902;50.816;12.828;2023-02-15T12:21:12;14.88;;;13.98;;
30080;SDS011;16902;50.816;12.828;2023-02-15T12:26:28;14.90;;;14.00;;
30080;SDS011;16902;50.816;12.828;2023-02-15T12:31:36;14.60;;;13.70;;
30080;SDS011;16902;50.816;12.828;2023-02-15T12:36:44;14.30;;;13.55;;
30080;SDS011;16902;50.816;12.828;2023-02-15T12:47:10;14.38;;;13.50;;
30080;SDS011;16902;50.816;12.828;2023-02-15T13:02:44;13.32;;;12.52;;
30080;SDS011;16902;50.816;12.828;2023-02-15T13:07:51;13.60;;;12.85;;
30080;SDS011;16902;50.816;12.828;2023-02-15T13:12:57;13.20;;;12.50;;
30080;SDS011;16902;50.816;12.828;2023-02-15T13:18:00;13.18;;;12.57;;
30080;SDS011;16902;50.816;12.828;2023-02-15T13:23:04;13.68;;;13.07;;
30080;SDS011;16902;50.816;12.828;2023-02-15T13:28:14;13.85;;;13.15;;
30080;SDS011;16902;50.816;12.828;2023-02-15T13:33:35;13.23;;;12.63;;
30080;SDS011;16902;50.816;12.828;2023-02-15T13:38:46;12.98;;;12.38;;
30080;SDS011;16902;50.816;12.828;2023-02-15T13:44:04;13.27;;;12.57;;
30080;SDS011;16902;50.816;12.828;2023-02-15T14:16:14;14.55;;;13.82;;
30080;SDS011;16902;50.816;12.828;2023-02-15T14:21:31;14.45;;;13.52;;
30080;SDS011;16902;50.816;12.828;2023-02-15T14:31:46;14.65;;;13.85;;
30080;SDS011;16902;50.816;12.828;2023-02-15T14:36:53;14.45;;;13.75;;
30080;SDS011;16902;50.816;12.828;2023-02-15T14:41:58;14.20;;;13.27;;
30080;SDS011;16902;50.816;12.828;2023-02-15T14:47:20;13.73;;;13.00;;
30080;SDS011;16902;50.816;12.828;2023-02-15T14:52:26;13.55;;;12.80;;
30080;SDS011;16902;50.816;12.828;2023-02-15T14:57:29;14.10;;;13.23;;
30080;SDS011;16902;50.816;12.828;2023-02-15T15:02:48;13.90;;;13.20;;
30080;SDS011;16902;50.816;12.828;2023-02-15T15:07:57;13.88;;;13.18;;
30080;SDS011;16902;50.816;12.828;2023-02-15T15:13:34;12.80;;;11.93;;
30080;SDS011;16902;50.816;12.828;2023-02-15T15:18:45;14.18;;;13.48;;
30080;SDS011;16902;50.816;12.828;2023-02-15T15:23:49;14.10;;;13.27;;
30080;SDS011;16902;50.816;12.828;2023-02-15T15:50:15;13.50;;;12.70;;
30080;SDS011;16902;50.816;12.828;2023-02-15T15:55:21;13.25;;;12.38;;
30080;SDS011;16902;50.816;12.828;2023-02-15T16:05:48;14.15;;;13.35;;
30080;SDS011;16902;50.816;12.828;2023-02-15T16:10:55;13.07;;;12.38;;
30080;SDS011;16902;50.816;12.828;2023-02-15T16:15:59;14.05;;;12.98;;
30080;SDS011;16902;50.816;12.828;2023-02-15T16:21:01;13.57;;;12.88;;
30080;SDS011;16902;50.816;12.828;2023-02-15T16:31:27;12.85;;;12.15;;
30080;SDS011;16902;50.816;12.828;2023-02-15T16:36:29;13.70;;;12.50;;
30080;SDS011;16902;50.816;12.828;2023-02-15T16:41:31;14.30;;;13.40;;
30080;SDS011;16902;50.816;12.828;2023-02-15T16:46:36;16.77;;;15.38;;
30080;SDS011;16902;50.816;12.828;2023-02-15T16:51:41;14.75;;;13.75;;
30080;SDS011;16902;50.816;12.828;2023-02-15T16:56:46;15.95;;;14.77;;
30080;SDS011;16902;50.816;12.828;2023-02-15T17:01:48;15.60;;;14.48;;
30080;SDS011;16902;50.816;12.828;2023-02-15T17:12:46;18.08;;;16.38;;
30080;SDS011;16902;50.816;12.828;2023-02-15T17:17:57;14.98;;;13.70;;
30080;SDS011;16902;50.816;12.828;2023-02-15T17:23:02;13.65;;;12.35;;
30080;SDS011;16902;50.816;12.828;2023-02-15T17:28:05;17.10;;;15.32;;
30080;SDS011;16902;50.816;12.828;2023-02-15T17:33:20;15.27;;;13.80;;
30080;SDS011;16902;50.816;12.828;2023-02-15T17:38:36;13.95;;;12.85;;
30080;SDS011;16902;50.816;12.828;2023-02-15T17:43:39;13.18;;;12.02;;
30080;SDS011;16902;50.816;12.828;2023-02-15T17:48:42;13.90;;;12.50;;
30080;SDS011;16902;50.816;12.828;2023-02-15T17:53:44;14.68;;;13.32;;
30080;SDS011;16902;50.816;12.828;2023-02-15T17:59:06;15.68;;;14.18;;
30080;SDS011;16902;50.816;12.828;2023-02-15T18:04:08;15.60;;;14.25;;
30080;SDS011;16902;50.816;12.828;2023-02-15T18:09:32;15.15;;;13.85;;
30080;SDS011;16902;50.816;12.828;2023-02-15T18:14:52;16.35;;;14.85;;
30080;SDS011;16902;50.816;12.828;2023-02-15T18:19:55;15.82;;;14.43;;
30080;SDS011;16902;50.816;12.828;2023-02-15T18:24:57;15.23;;;13.77;;
30080;SDS011;16902;50.816;12.828;2023-02-15T18:29:59;16.75;;;14.00;;
30080;SDS011;16902;50.816;12.828;2023-02-15T18:35:01;16.17;;;14.57;;
30080;SDS011;16902;50.816;12.828;2023-02-15T18:40:09;16.17;;;14.52;;
30080;SDS011;16902;50.816;12.828;2023-02-15T18:45:20;16.70;;;14.80;;
30080;SDS011;16902;50.816;12.828;2023-02-15T18:50:26;15.75;;;14.15;;
30080;SDS011;16902;50.816;12.828;2023-02-15T18:55:32;14.35;;;13.10;;
30080;SDS011;16902;50.816;12.828;2023-02-15T19:00:35;15.43;;;13.88;;
30080;SDS011;16902;50.816;12.828;2023-02-15T19:05:37;14.65;;;13.23;;
30080;SDS011;16902;50.816;12.828;2023-02-15T19:10:42;14.70;;;13.20;;
30080;SDS011;16902;50.816;12.828;2023-02-15T19:15:44;16.08;;;12.77;;
30080;SDS011;16902;50.816;12.828;2023-02-15T19:20:46;15.05;;;13.55;;
30080;SDS011;16902;50.816;12.828;2023-02-15T19:25:48;15.10;;;12.38;;
30080;SDS011;16902;50.816;12.828;2023-02-15T19:30:52;15.15;;;13.23;;
30080;SDS011;16902;50.816;12.828;2023-02-15T19:35:54;17.13;;;14.05;;
30080;SDS011;16902;50.816;12.828;2023-02-15T19:41:01;15.55;;;13.07;;
30080;SDS011;16902;50.816;12.828;2023-02-15T19:46:09;12.80;;;11.45;;
30080;SDS011;16902;50.816;12.828;2023-02-15T19:51:20;13.70;;;11.48;;
30080;SDS011;16902;50.816;12.828;2023-02-15T19:56:23;12.93;;;11.63;;
30080;SDS011;16902;50.816;12.828;2023-02-15T20:01:27;14.93;;;11.75;;
30080;SDS011;16902;50.816;12.828;2023-02-15T20:06:31;12.27;;;10.98;;
30080;SDS011;16902;50.816;12.828;2023-02-15T20:11:34;13.20;;;11.80;;
30080;SDS011;16902;50.816;12.828;2023-02-15T20:16:36;12.57;;;11.27;;
30080;SDS011;16902;50.816;12.828;2023-02-15T20:21:38;15.23;;;12.65;;
30080;SDS011;16902;50.816;12.828;2023-02-15T20:26:41;15.45;;;13.85;;
30080;SDS011;16902;50.816;12.828;2023-02-15T20:31:44;14.98;;;12.55;;
30080;SDS011;16902;50.816;12.828;2023-02-15T20:36:46;15.40;;;13.85;;
30080;SDS011;16902;50.816;12.828;2023-02-15T20:41:48;16.58;;;14.45;;
30080;SDS011;16902;50.816;12.828;2023-02-15T20:46:51;17.17;;;15.13;;
30080;SDS011;16902;50.816;12.828;2023-02-15T20:51:55;16.60;;;13.45;;
30080;SDS011;16902;50.816;12.828;2023-02-15T20:56:57;15.07;;;13.48;;
30080;SDS011;16902;50.816;12.828;2023-02-15T21:02:00;15.20;;;12.98;;
30080;SDS011;16902;50.816;12.828;2023-02-15T21:07:15;13.40;;;12.20;;
30080;SDS011;16902;50.816;12.828;2023-02-15T21:12:18;13.40;;;12.00;;
30080;SDS011;16902;50.816;12.828;2023-02-15T21:17:22;14.35;;;12.65;;
30080;SDS011;16902;50.816;12.828;2023-02-15T21:22:24;15.70;;;14.20;;
30080;SDS011;16902;50.816;12.828;2023-02-15T21:27:27;16.17;;;14.55;;
30080;SDS011;16902;50.816;12.828;2023-02-15T21:32:29;13.52;;;12.23;;
30080;SDS011;16902;50.816;12.828;2023-02-15T21:37:31;13.32;;;12.00;;
30080;SDS011;16902;50.816;12.828;2023-02-15T21:42:35;13.32;;;12.02;;
30080;SDS011;16902;50.816;12.828;2023-02-15T21:47:56;11.68;;;10.70;;
30080;SDS011;16902;50.816;12.828;2023-02-15T21:52:58;13.00;;;11.70;;
30080;SDS011;16902;50.816;12.828;2023-02-15T21:58:00;12.65;;;11.27;;
30080;SDS011;16902;50.816;12.828;2023-02-15T22:03:02;12.63;;;11.38;;
30080;SDS011;16902;50.816;12.828;2023-02-15T22:08:10;12.85;;;11.65;;
30080;SDS011;16902;50.816;12.828;2023-02-15T22:13:14;11.77;;;10.60;;
30080;SDS011;16902;50.816;12.828;2023-02-15T22:18:21;12.15;;;10.95;;
30080;SDS011;16902;50.816;12.828;2023-02-15T22:23:25;12.15;;;10.85;;
30080;SDS011;16902;50.816;12.828;2023-02-15T22:28:30;13.60;;;11.88;;
30080;SDS011;16902;50.816;12.828;2023-02-15T22:33:34;13.55;;;11.50;;
30080;SDS011;16902;50.816;12.828;2023-02-15T22:38:36;12.98;;;11.23;;
30080;SDS011;16902;50.816;12.828;2023-02-15T22:43:39;14.02;;;11.35;;
30080;SDS011;16902;50.816;12.828;2023-02-15T22:48:43;12.85;;;11.57;;
30080;SDS011;16902;50.816;12.828;2023-02-15T22:53:48;13.57;;;11.75;;
30080;SDS011;16902;50.816;12.828;2023-02-15T22:58:54;12.70;;;11.43;;
30080;SDS011;16902;50.816;12.828;2023-02-15T23:04:03;13.10;;;11.65;;
30080;SDS011;16902;50.816;12.828;2023-02-15T23:09:05;12.75;;;11.45;;
30080;SDS011;16902;50.816;12.828;2023-02-15T23:19:38;12.80;;;11.68;;
30080;SDS011;16902;50.816;12.828;2023-02-15T23:24:40;13.55;;;12.25;;
30080;SDS011;16902;50.816;12.828;2023-02-15T23:29:43;13.52;;;12.13;;
30080;SDS011;16902;50.816;12.828;2023-02-15T23:34:45;13.85;;;12.52;;
30080;SDS011;16902;50.816;12.828;2023-02-15T23:39:47;14.65;;;12.52;;
30080;SDS011;16902;50.816;12.828;2023-02-15T23:45:15;13.50;;;11.85;;
30080;SDS011;16902;50.816;12.828;2023-02-15T23:50:24;13.38;;;11.48;;
30080;SDS011;16902;50.816;12.828;2023-02-15T23:55:34;12.65;;;11.27;;
